Strona główna
METAR-TAF:

METAR-TAF

Lotnisko :

Waterville Robert LaFleur Airport

Waterville, Maine, Stany Zjednoczone

Szerokość geograficzna: 44-32N, Długość geograficzna: 069-41W, wysokość: 101 m

Aktualna obserwacja pogody

Raport powstał 26 minut temu, godzina 05:56 UTC
Cisza
Temperatura -6°C
Wilgotność 93%
Ciśnienie 1016 hPa
Widzialność: 16.1 km
bezchmurnie

METAR: KWVL 240556Z AUTO 00000KT 10SM CLR M06/M07 A2999 RMK AO2 SLP187 T10561067 10017 21056 56006 PWINO FZRANO $

czas: 01:22 (06:22 UTC)


TAF: brakujący

Obserwacja i prognoza pogody dla ponad 4000 lotnisk (raport METAR i TAF).

Dostępne stacje oznaczono żółtymi i czerwonymi punktami na mapie.

Najedź kursorem aby zobaczyć nazwę stacji.

Kliknij aby zobaczyć obserwacje i prognozy pogody.

Aby zmienić mapę: kliknij na zielony przycisk z czarnym krzyżykiem, aby powiększyć; na zielony przycisk z myślnikiem, aby pomniejszyć; na zielone strzałki, aby przejść do map sąsiednich.


METAR-TAF: